sensor_id;sensor_type;location;lat;lon;timestamp;temperature;humidity
19974;DHT22;10148;47.694;9.442;2023-03-05T00:01:12;1.40;99.90
19974;DHT22;10148;47.694;9.442;2023-03-05T00:03:38;1.40;99.90
19974;DHT22;10148;47.694;9.442;2023-03-05T00:06:04;1.50;99.90
19974;DHT22;10148;47.694;9.442;2023-03-05T00:08:30;1.50;99.90
19974;DHT22;10148;47.694;9.442;2023-03-05T00:10:57;1.40;99.90
19974;DHT22;10148;47.694;9.442;2023-03-05T00:13:23;1.50;99.90
19974;DHT22;10148;47.694;9.442;2023-03-05T00:15:49;1.50;99.90
19974;DHT22;10148;47.694;9.442;2023-03-05T00:18:15;1.50;99.90
19974;DHT22;10148;47.694;9.442;2023-03-05T00:20:40;1.50;99.90
19974;DHT22;10148;47.694;9.442;2023-03-05T00:23:06;1.50;99.90
19974;DHT22;10148;47.694;9.442;2023-03-05T00:25:34;1.50;99.90
19974;DHT22;10148;47.694;9.442;2023-03-05T00:28:01;1.50;99.90
19974;DHT22;10148;47.694;9.442;2023-03-05T00:30:26;1.50;99.90
19974;DHT22;10148;47.694;9.442;2023-03-05T00:32:52;1.50;99.90
19974;DHT22;10148;47.694;9.442;2023-03-05T00:35:17;1.50;99.90
19974;DHT22;10148;47.694;9.442;2023-03-05T00:37:43;1.60;99.90
19974;DHT22;10148;47.694;9.442;2023-03-05T00:40:09;1.60;99.90
19974;DHT22;10148;47.694;9.442;2023-03-05T00:42:35;1.60;99.90
19974;DHT22;10148;47.694;9.442;2023-03-05T00:45:04;1.50;99.90
19974;DHT22;10148;47.694;9.442;2023-03-05T00:47:30;1.50;99.90
19974;DHT22;10148;47.694;9.442;2023-03-05T00:49:55;1.50;99.90
19974;DHT22;10148;47.694;9.442;2023-03-05T00:52:21;1.50;99.90
19974;DHT22;10148;47.694;9.442;2023-03-05T00:54:46;1.50;99.90
19974;DHT22;10148;47.694;9.442;2023-03-05T00:57:12;1.50;99.90
19974;DHT22;10148;47.694;9.442;2023-03-05T00:59:37;1.60;99.90
19974;DHT22;10148;47.694;9.442;2023-03-05T01:02:03;1.60;99.90
19974;DHT22;10148;47.694;9.442;2023-03-05T01:04:28;1.60;99.90
19974;DHT22;10148;47.694;9.442;2023-03-05T01:06:54;1.60;99.90
19974;DHT22;10148;47.694;9.442;2023-03-05T01:09:20;1.50;99.90
19974;DHT22;10148;47.694;9.442;2023-03-05T01:11:46;1.50;99.90
19974;DHT22;10148;47.694;9.442;2023-03-05T01:14:12;1.50;99.90
19974;DHT22;10148;47.694;9.442;2023-03-05T01:16:38;1.50;99.90
19974;DHT22;10148;47.694;9.442;2023-03-05T01:19:03;1.40;99.90
19974;DHT22;10148;47.694;9.442;2023-03-05T01:21:29;1.40;99.90
19974;DHT22;10148;47.694;9.442;2023-03-05T01:23:55;1.50;99.90
19974;DHT22;10148;47.694;9.442;2023-03-05T01:26:20;1.40;99.90
19974;DHT22;10148;47.694;9.442;2023-03-05T01:28:46;1.50;99.90
19974;DHT22;10148;47.694;9.442;2023-03-05T01:31:12;1.50;99.90
19974;DHT22;10148;47.694;9.442;2023-03-05T01:33:37;1.50;99.90
19974;DHT22;10148;47.694;9.442;2023-03-05T01:36:10;1.50;99.90
19974;DHT22;10148;47.694;9.442;2023-03-05T01:38:37;1.50;99.90
19974;DHT22;10148;47.694;9.442;2023-03-05T01:41:03;1.50;99.90
19974;DHT22;10148;47.694;9.442;2023-03-05T01:43:29;1.50;99.90
19974;DHT22;10148;47.694;9.442;2023-03-05T01:48:48;1.60;99.90
19974;DHT22;10148;47.694;9.442;2023-03-05T01:51:18;1.50;99.90
19974;DHT22;10148;47.694;9.442;2023-03-05T01:53:44;1.60;99.90
19974;DHT22;10148;47.694;9.442;2023-03-05T01:56:10;1.60;99.90
19974;DHT22;10148;47.694;9.442;2023-03-05T01:58:36;1.60;99.90
19974;DHT22;10148;47.694;9.442;2023-03-05T02:01:04;1.60;99.90
19974;DHT22;10148;47.694;9.442;2023-03-05T02:03:31;1.70;99.90
19974;DHT22;10148;47.694;9.442;2023-03-05T02:05:57;1.70;99.90
19974;DHT22;10148;47.694;9.442;2023-03-05T02:08:23;1.70;99.90
19974;DHT22;10148;47.694;9.442;2023-03-05T02:10:50;1.70;99.90
19974;DHT22;10148;47.694;9.442;2023-03-05T02:13:23;1.70;99.90
19974;DHT22;10148;47.694;9.442;2023-03-05T02:15:49;1.70;99.90
19974;DHT22;10148;47.694;9.442;2023-03-05T02:18:17;1.70;99.90
19974;DHT22;10148;47.694;9.442;2023-03-05T02:20:46;1.70;99.90
19974;DHT22;10148;47.694;9.442;2023-03-05T02:23:12;1.70;99.90
19974;DHT22;10148;47.694;9.442;2023-03-05T02:25:38;1.70;99.90
19974;DHT22;10148;47.694;9.442;2023-03-05T02:30:29;1.70;99.90
19974;DHT22;10148;47.694;9.442;2023-03-05T02:32:55;1.70;99.90
19974;DHT22;10148;47.694;9.442;2023-03-05T02:35:21;1.60;99.90
19974;DHT22;10148;47.694;9.442;2023-03-05T02:37:46;1.70;99.90
19974;DHT22;10148;47.694;9.442;2023-03-05T02:40:13;1.60;99.90
19974;DHT22;10148;47.694;9.442;2023-03-05T02:42:39;1.70;99.90
19974;DHT22;10148;47.694;9.442;2023-03-05T02:45:05;1.60;99.90
19974;DHT22;10148;47.694;9.442;2023-03-05T02:47:31;1.70;99.90
19974;DHT22;10148;47.694;9.442;2023-03-05T02:49:57;1.70;99.90
19974;DHT22;10148;47.694;9.442;2023-03-05T02:52:22;1.70;99.90
19974;DHT22;10148;47.694;9.442;2023-03-05T02:54:49;1.60;99.90
19974;DHT22;10148;47.694;9.442;2023-03-05T02:57:15;1.60;99.90
19974;DHT22;10148;47.694;9.442;2023-03-05T02:59:41;1.60;99.90
19974;DHT22;10148;47.694;9.442;2023-03-05T03:02:06;1.60;99.90
19974;DHT22;10148;47.694;9.442;2023-03-05T03:04:32;1.60;99.90
19974;DHT22;10148;47.694;9.442;2023-03-05T03:06:58;1.60;99.90
19974;DHT22;10148;47.694;9.442;2023-03-05T03:09:23;1.60;99.90
19974;DHT22;10148;47.694;9.442;2023-03-05T03:11:51;1.60;99.90
19974;DHT22;10148;47.694;9.442;2023-03-05T03:14:16;1.60;99.90
19974;DHT22;10148;47.694;9.442;2023-03-05T03:16:42;1.60;99.90
19974;DHT22;10148;47.694;9.442;2023-03-05T03:19:08;1.50;99.90
19974;DHT22;10148;47.694;9.442;2023-03-05T03:21:33;1.50;99.90
19974;DHT22;10148;47.694;9.442;2023-03-05T03:23:59;1.60;99.90
19974;DHT22;10148;47.694;9.442;2023-03-05T03:26:24;1.60;99.90
19974;DHT22;10148;47.694;9.442;2023-03-05T03:28:50;1.60;99.90
19974;DHT22;10148;47.694;9.442;2023-03-05T03:31:15;1.60;99.90
19974;DHT22;10148;47.694;9.442;2023-03-05T03:33:41;1.50;99.90
19974;DHT22;10148;47.694;9.442;2023-03-05T03:36:07;1.50;99.90
19974;DHT22;10148;47.694;9.442;2023-03-05T03:38:32;1.50;99.90
19974;DHT22;10148;47.694;9.442;2023-03-05T03:40:58;1.60;99.90
19974;DHT22;10148;47.694;9.442;2023-03-05T03:43:24;1.50;99.90
19974;DHT22;10148;47.694;9.442;2023-03-05T03:45:49;1.50;99.90
19974;DHT22;10148;47.694;9.442;2023-03-05T03:48:15;1.60;99.90
19974;DHT22;10148;47.694;9.442;2023-03-05T03:50:41;1.60;99.90
19974;DHT22;10148;47.694;9.442;2023-03-05T03:53:07;1.50;99.90
19974;DHT22;10148;47.694;9.442;2023-03-05T03:55:33;1.50;99.90
19974;DHT22;10148;47.694;9.442;2023-03-05T03:58:00;1.50;99.90
19974;DHT22;10148;47.694;9.442;2023-03-05T04:00:25;1.60;99.90
19974;DHT22;10148;47.694;9.442;2023-03-05T04:02:51;1.50;99.90
19974;DHT22;10148;47.694;9.442;2023-03-05T04:05:16;1.50;99.90
19974;DHT22;10148;47.694;9.442;2023-03-05T04:07:42;1.50;99.90
19974;DHT22;10148;47.694;9.442;2023-03-05T04:10:10;1.60;99.90
19974;DHT22;10148;47.694;9.442;2023-03-05T04:12:36;1.60;99.90
19974;DHT22;10148;47.694;9.442;2023-03-05T04:15:01;1.60;99.90
19974;DHT22;10148;47.694;9.442;2023-03-05T04:17:27;1.60;99.90
19974;DHT22;10148;47.694;9.442;2023-03-05T04:19:53;1.60;99.90
19974;DHT22;10148;47.694;9.442;2023-03-05T04:22:18;1.60;99.90
19974;DHT22;10148;47.694;9.442;2023-03-05T04:24:44;1.60;99.90
19974;DHT22;10148;47.694;9.442;2023-03-05T04:27:10;1.60;99.90
19974;DHT22;10148;47.694;9.442;2023-03-05T04:29:36;1.50;99.90
19974;DHT22;10148;47.694;9.442;2023-03-05T04:32:01;1.50;99.90
19974;DHT22;10148;47.694;9.442;2023-03-05T04:34:27;1.50;99.90
19974;DHT22;10148;47.694;9.442;2023-03-05T04:36:53;1.40;99.90
19974;DHT22;10148;47.694;9.442;2023-03-05T04:39:18;1.50;99.90
19974;DHT22;10148;47.694;9.442;2023-03-05T04:41:46;1.40;99.90
19974;DHT22;10148;47.694;9.442;2023-03-05T04:44:12;1.40;99.90
19974;DHT22;10148;47.694;9.442;2023-03-05T04:46:37;1.40;99.90
19974;DHT22;10148;47.694;9.442;2023-03-05T04:49:03;1.40;99.90
19974;DHT22;10148;47.694;9.442;2023-03-05T04:51:28;1.30;99.90
19974;DHT22;10148;47.694;9.442;2023-03-05T04:53:54;1.30;99.90
19974;DHT22;10148;47.694;9.442;2023-03-05T04:56:19;1.30;99.90
19974;DHT22;10148;47.694;9.442;2023-03-05T04:58:45;1.30;99.90
19974;DHT22;10148;47.694;9.442;2023-03-05T05:01:11;1.30;99.90
19974;DHT22;10148;47.694;9.442;2023-03-05T05:03:36;1.30;99.90
19974;DHT22;10148;47.694;9.442;2023-03-05T05:06:02;1.30;99.90
19974;DHT22;10148;47.694;9.442;2023-03-05T05:08:28;1.40;99.90
19974;DHT22;10148;47.694;9.442;2023-03-05T05:11:05;1.40;99.90
19974;DHT22;10148;47.694;9.442;2023-03-05T05:13:32;1.40;99.90
19974;DHT22;10148;47.694;9.442;2023-03-05T05:15:58;1.50;99.90
19974;DHT22;10148;47.694;9.442;2023-03-05T05:18:24;1.50;99.90
19974;DHT22;10148;47.694;9.442;2023-03-05T05:20:50;1.50;99.90
19974;DHT22;10148;47.694;9.442;2023-03-05T05:23:15;1.50;99.90
19974;DHT22;10148;47.694;9.442;2023-03-05T05:25:41;1.50;99.90
19974;DHT22;10148;47.694;9.442;2023-03-05T05:28:08;1.40;99.90
19974;DHT22;10148;47.694;9.442;2023-03-05T05:30:33;1.50;99.90
19974;DHT22;10148;47.694;9.442;2023-03-05T05:32:59;1.50;99.90
19974;DHT22;10148;47.694;9.442;2023-03-05T05:35:25;1.40;99.90
19974;DHT22;10148;47.694;9.442;2023-03-05T05:37:50;1.40;99.90
19974;DHT22;10148;47.694;9.442;2023-03-05T05:40:16;1.40;99.90
19974;DHT22;10148;47.694;9.442;2023-03-05T05:42:41;1.40;99.90
19974;DHT22;10148;47.694;9.442;2023-03-05T05:45:08;1.40;99.90
19974;DHT22;10148;47.694;9.442;2023-03-05T05:47:33;1.40;99.90
19974;DHT22;10148;47.694;9.442;2023-03-05T05:49:59;1.30;99.90
19974;DHT22;10148;47.694;9.442;2023-03-05T05:52:24;1.30;99.90
19974;DHT22;10148;47.694;9.442;2023-03-05T05:54:50;1.30;99.90
19974;DHT22;10148;47.694;9.442;2023-03-05T05:57:15;1.20;99.90
19974;DHT22;10148;47.694;9.442;2023-03-05T05:59:41;1.20;99.90
19974;DHT22;10148;47.694;9.442;2023-03-05T06:02:07;1.20;99.90
19974;DHT22;10148;47.694;9.442;2023-03-05T06:04:34;1.20;99.90
19974;DHT22;10148;47.694;9.442;2023-03-05T06:07:00;1.20;99.90
19974;DHT22;10148;47.694;9.442;2023-03-05T06:09:26;1.20;99.90
19974;DHT22;10148;47.694;9.442;2023-03-05T06:11:51;1.30;99.90
19974;DHT22;10148;47.694;9.442;2023-03-05T06:14:17;1.20;99.90
19974;DHT22;10148;47.694;9.442;2023-03-05T06:16:42;1.30;99.90
19974;DHT22;10148;47.694;9.442;2023-03-05T06:19:11;1.30;99.90
19974;DHT22;10148;47.694;9.442;2023-03-05T06:21:36;1.30;99.90
19974;DHT22;10148;47.694;9.442;2023-03-05T06:24:02;1.20;99.90
19974;DHT22;10148;47.694;9.442;2023-03-05T06:26:28;1.20;99.90
19974;DHT22;10148;47.694;9.442;2023-03-05T06:28:53;1.20;99.90
19974;DHT22;10148;47.694;9.442;2023-03-05T06:31:24;1.20;99.90
19974;DHT22;10148;47.694;9.442;2023-03-05T06:33:51;1.20;99.90
19974;DHT22;10148;47.694;9.442;2023-03-05T06:36:19;1.30;99.90
19974;DHT22;10148;47.694;9.442;2023-03-05T06:38:45;1.30;99.90
19974;DHT22;10148;47.694;9.442;2023-03-05T06:41:17;1.30;99.90
19974;DHT22;10148;47.694;9.442;2023-03-05T06:43:45;1.40;99.90
19974;DHT22;10148;47.694;9.442;2023-03-05T06:48:45;1.40;99.90
19974;DHT22;10148;47.694;9.442;2023-03-05T06:51:19;1.40;99.90
19974;DHT22;10148;47.694;9.442;2023-03-05T06:53:45;1.50;99.90
19974;DHT22;10148;47.694;9.442;2023-03-05T06:56:12;1.50;99.90
19974;DHT22;10148;47.694;9.442;2023-03-05T06:58:39;1.50;99.90
19974;DHT22;10148;47.694;9.442;2023-03-05T07:01:05;1.60;99.90
19974;DHT22;10148;47.694;9.442;2023-03-05T07:03:32;1.60;99.90
19974;DHT22;10148;47.694;9.442;2023-03-05T07:05:58;1.60;99.90
19974;DHT22;10148;47.694;9.442;2023-03-05T07:08:23;1.60;99.90
19974;DHT22;10148;47.694;9.442;2023-03-05T07:10:49;1.60;99.90
19974;DHT22;10148;47.694;9.442;2023-03-05T07:13:14;1.60;99.90
19974;DHT22;10148;47.694;9.442;2023-03-05T07:15:40;1.60;99.90
19974;DHT22;10148;47.694;9.442;2023-03-05T07:18:06;1.60;99.90
19974;DHT22;10148;47.694;9.442;2023-03-05T07:20:36;1.60;99.90
19974;DHT22;10148;47.694;9.442;2023-03-05T07:23:02;1.70;99.90
19974;DHT22;10148;47.694;9.442;2023-03-05T07:25:29;1.70;99.90
19974;DHT22;10148;47.694;9.442;2023-03-05T07:27:54;1.70;99.90
19974;DHT22;10148;47.694;9.442;2023-03-05T07:30:20;1.80;99.90
19974;DHT22;10148;47.694;9.442;2023-03-05T07:32:46;1.80;99.90
19974;DHT22;10148;47.694;9.442;2023-03-05T07:35:11;1.80;99.90
19974;DHT22;10148;47.694;9.442;2023-03-05T07:37:37;1.90;99.90
19974;DHT22;10148;47.694;9.442;2023-03-05T07:40:03;2.00;99.90
19974;DHT22;10148;47.694;9.442;2023-03-05T07:42:29;2.00;99.90
19974;DHT22;10148;47.694;9.442;2023-03-05T07:44:55;2.00;99.90
19974;DHT22;10148;47.694;9.442;2023-03-05T07:47:21;2.10;99.90
19974;DHT22;10148;47.694;9.442;2023-03-05T07:49:48;2.10;99.90
19974;DHT22;10148;47.694;9.442;2023-03-05T07:52:13;2.10;99.90
19974;DHT22;10148;47.694;9.442;2023-03-05T07:54:39;2.20;99.90
19974;DHT22;10148;47.694;9.442;2023-03-05T07:57:07;2.20;99.90
19974;DHT22;10148;47.694;9.442;2023-03-05T07:59:33;2.30;99.90
19974;DHT22;10148;47.694;9.442;2023-03-05T08:01:58;2.30;99.90
19974;DHT22;10148;47.694;9.442;2023-03-05T08:04:24;2.30;99.90
19974;DHT22;10148;47.694;9.442;2023-03-05T08:06:49;2.40;99.90
19974;DHT22;10148;47.694;9.442;2023-03-05T08:09:16;2.40;99.90
19974;DHT22;10148;47.694;9.442;2023-03-05T08:11:42;2.50;99.90
19974;DHT22;10148;47.694;9.442;2023-03-05T08:14:08;2.50;99.90
19974;DHT22;10148;47.694;9.442;2023-03-05T08:16:34;2.60;99.90
19974;DHT22;10148;47.694;9.442;2023-03-05T08:19:00;2.60;99.90
19974;DHT22;10148;47.694;9.442;2023-03-05T08:21:28;2.70;99.90
19974;DHT22;10148;47.694;9.442;2023-03-05T08:23:56;2.80;99.90
19974;DHT22;10148;47.694;9.442;2023-03-05T08:26:23;2.80;99.90
19974;DHT22;10148;47.694;9.442;2023-03-05T08:28:49;2.90;99.90
19974;DHT22;10148;47.694;9.442;2023-03-05T08:31:16;2.90;99.90
19974;DHT22;10148;47.694;9.442;2023-03-05T08:33:42;2.80;99.90
19974;DHT22;10148;47.694;9.442;2023-03-05T08:36:08;2.80;99.90
19974;DHT22;10148;47.694;9.442;2023-03-05T08:38:34;2.90;99.90
19974;DHT22;10148;47.694;9.442;2023-03-05T08:41:00;3.00;99.90
19974;DHT22;10148;47.694;9.442;2023-03-05T08:43:25;3.10;99.90
19974;DHT22;10148;47.694;9.442;2023-03-05T08:45:51;3.20;99.90
19974;DHT22;10148;47.694;9.442;2023-03-05T08:48:18;3.30;99.90
19974;DHT22;10148;47.694;9.442;2023-03-05T08:50:44;3.40;99.90
19974;DHT22;10148;47.694;9.442;2023-03-05T08:53:09;3.40;99.90
19974;DHT22;10148;47.694;9.442;2023-03-05T08:55:36;3.50;99.90
19974;DHT22;10148;47.694;9.442;2023-03-05T08:58:02;3.50;99.90
19974;DHT22;10148;47.694;9.442;2023-03-05T09:00:28;3.60;99.90
19974;DHT22;10148;47.694;9.442;2023-03-05T09:02:53;3.50;99.90
19974;DHT22;10148;47.694;9.442;2023-03-05T09:05:19;3.60;99.90
19974;DHT22;10148;47.694;9.442;2023-03-05T09:07:45;3.70;99.90
19974;DHT22;10148;47.694;9.442;2023-03-05T09:10:11;3.70;99.90
19974;DHT22;10148;47.694;9.442;2023-03-05T09:12:41;3.70;99.90
19974;DHT22;10148;47.694;9.442;2023-03-05T09:15:08;3.70;99.90
19974;DHT22;10148;47.694;9.442;2023-03-05T09:17:36;3.70;99.90
19974;DHT22;10148;47.694;9.442;2023-03-05T09:20:04;3.80;99.90
19974;DHT22;10148;47.694;9.442;2023-03-05T09:22:30;3.80;99.90
19974;DHT22;10148;47.694;9.442;2023-03-05T09:24:56;3.80;99.90
19974;DHT22;10148;47.694;9.442;2023-03-05T09:27:22;3.90;99.90
19974;DHT22;10148;47.694;9.442;2023-03-05T09:29:48;4.10;99.90
19974;DHT22;10148;47.694;9.442;2023-03-05T09:32:14;4.20;99.90
19974;DHT22;10148;47.694;9.442;2023-03-05T09:34:39;4.20;99.90
19974;DHT22;10148;47.694;9.442;2023-03-05T09:37:05;4.20;99.90
19974;DHT22;10148;47.694;9.442;2023-03-05T09:39:30;4.30;99.90
19974;DHT22;10148;47.694;9.442;2023-03-05T09:47:55;4.60;99.90
19974;DHT22;10148;47.694;9.442;2023-03-05T09:50:43;4.60;99.90
19974;DHT22;10148;47.694;9.442;2023-03-05T09:55:46;4.80;99.90
19974;DHT22;10148;47.694;9.442;2023-03-05T09:58:34;4.80;99.90
19974;DHT22;10148;47.694;9.442;2023-03-05T10:01:16;4.80;99.90
19974;DHT22;10148;47.694;9.442;2023-03-05T10:04:01;5.00;99.90
19974;DHT22;10148;47.694;9.442;2023-03-05T10:06:35;5.10;99.90
19974;DHT22;10148;47.694;9.442;2023-03-05T10:11:53;5.20;99.90
19974;DHT22;10148;47.694;9.442;2023-03-05T10:14:30;5.30;99.90
19974;DHT22;10148;47.694;9.442;2023-03-05T10:19:44;5.60;99.90
19974;DHT22;10148;47.694;9.442;2023-03-05T10:22:28;5.60;99.90
19974;DHT22;10148;47.694;9.442;2023-03-05T10:27:50;5.80;99.90
19974;DHT22;10148;47.694;9.442;2023-03-05T10:44:57;6.20;99.90
19974;DHT22;10148;47.694;9.442;2023-03-05T10:50:36;6.40;99.90
19974;DHT22;10148;47.694;9.442;2023-03-05T10:53:14;6.50;99.90
19974;DHT22;10148;47.694;9.442;2023-03-05T10:55:41;6.50;99.90
19974;DHT22;10148;47.694;9.442;2023-03-05T10:58:11;6.60;99.90
19974;DHT22;10148;47.694;9.442;2023-03-05T11:00:38;6.70;99.90
19974;DHT22;10148;47.694;9.442;2023-03-05T11:03:07;6.70;99.90
19974;DHT22;10148;47.694;9.442;2023-03-05T11:05:43;6.40;99.90
19974;DHT22;10148;47.694;9.442;2023-03-05T11:13:50;6.50;99.90
19974;DHT22;10148;47.694;9.442;2023-03-05T11:17:20;6.60;99.90
19974;DHT22;10148;47.694;9.442;2023-03-05T11:21:40;7.10;99.90
19974;DHT22;10148;47.694;9.442;2023-03-05T11:24:14;7.00;99.90
19974;DHT22;10148;47.694;9.442;2023-03-05T11:26:51;6.80;99.90
19974;DHT22;10148;47.694;9.442;2023-03-05T11:29:29;6.80;99.90
19974;DHT22;10148;47.694;9.442;2023-03-05T11:31:55;6.90;99.90
19974;DHT22;10148;47.694;9.442;2023-03-05T11:34:39;6.70;99.90
19974;DHT22;10148;47.694;9.442;2023-03-05T11:37:05;6.70;99.90
19974;DHT22;10148;47.694;9.442;2023-03-05T11:39:33;6.80;99.90
19974;DHT22;10148;47.694;9.442;2023-03-05T11:42:14;6.90;99.90
19974;DHT22;10148;47.694;9.442;2023-03-05T11:44:47;7.00;99.90
19974;DHT22;10148;47.694;9.442;2023-03-05T11:47:25;7.20;99.90
19974;DHT22;10148;47.694;9.442;2023-03-05T11:50:20;7.40;99.90
19974;DHT22;10148;47.694;9.442;2023-03-05T11:52:52;7.60;99.90
19974;DHT22;10148;47.694;9.442;2023-03-05T11:58:22;7.70;99.90
19974;DHT22;10148;47.694;9.442;2023-03-05T12:00:49;7.60;99.90
19974;DHT22;10148;47.694;9.442;2023-03-05T12:03:19;7.60;99.90
19974;DHT22;10148;47.694;9.442;2023-03-05T12:05:49;7.70;99.90
19974;DHT22;10148;47.694;9.442;2023-03-05T12:08:21;8.00;99.90
19974;DHT22;10148;47.694;9.442;2023-03-05T12:10:50;8.40;99.90
19974;DHT22;10148;47.694;9.442;2023-03-05T12:13:28;9.10;99.90
19974;DHT22;10148;47.694;9.442;2023-03-05T12:18:56;10.60;99.90
19974;DHT22;10148;47.694;9.442;2023-03-05T12:21:41;10.80;99.90
19974;DHT22;10148;47.694;9.442;2023-03-05T12:27:05;11.10;99.90
19974;DHT22;10148;47.694;9.442;2023-03-05T12:29:47;10.30;99.90
19974;DHT22;10148;47.694;9.442;2023-03-05T12:35:24;10.30;99.90
19974;DHT22;10148;47.694;9.442;2023-03-05T12:40:32;10.90;99.90
19974;DHT22;10148;47.694;9.442;2023-03-05T12:43:03;10.90;99.90
19974;DHT22;10148;47.694;9.442;2023-03-05T12:45:40;10.70;99.90
19974;DHT22;10148;47.694;9.442;2023-03-05T12:53:18;9.90;99.90
19974;DHT22;10148;47.694;9.442;2023-03-05T12:55:55;9.60;99.90
19974;DHT22;10148;47.694;9.442;2023-03-05T12:58:41;9.50;99.90
19974;DHT22;10148;47.694;9.442;2023-03-05T13:03:42;9.30;99.90
19974;DHT22;10148;47.694;9.442;2023-03-05T13:06:22;9.30;99.90
19974;DHT22;10148;47.694;9.442;2023-03-05T13:08:58;9.60;99.90
19974;DHT22;10148;47.694;9.442;2023-03-05T13:11:27;9.60;99.90
19974;DHT22;10148;47.694;9.442;2023-03-05T13:13:54;9.60;99.90
19974;DHT22;10148;47.694;9.442;2023-03-05T13:16:28;9.50;99.90
19974;DHT22;10148;47.694;9.442;2023-03-05T13:18:58;9.60;99.90
19974;DHT22;10148;47.694;9.442;2023-03-05T13:21:29;9.90;99.90
19974;DHT22;10148;47.694;9.442;2023-03-05T13:24:00;10.30;99.90
19974;DHT22;10148;47.694;9.442;2023-03-05T13:26:27;10.90;99.90
19974;DHT22;10148;47.694;9.442;2023-03-05T13:29:14;11.20;99.90
19974;DHT22;10148;47.694;9.442;2023-03-05T13:31:44;11.30;99.90
19974;DHT22;10148;47.694;9.442;2023-03-05T13:36:39;11.50;99.90
19974;DHT22;10148;47.694;9.442;2023-03-05T13:39:17;11.30;99.90
19974;DHT22;10148;47.694;9.442;2023-03-05T13:41:57;11.00;99.90
19974;DHT22;10148;47.694;9.442;2023-03-05T13:44:23;10.70;99.90
19974;DHT22;10148;47.694;9.442;2023-03-05T13:46:49;10.70;99.90
19974;DHT22;10148;47.694;9.442;2023-03-05T13:49:25;10.90;99.90
19974;DHT22;10148;47.694;9.442;2023-03-05T13:51:53;10.70;99.90
19974;DHT22;10148;47.694;9.442;2023-03-05T13:54:20;10.70;99.90
19974;DHT22;10148;47.694;9.442;2023-03-05T13:56:50;10.60;99.90
19974;DHT22;10148;47.694;9.442;2023-03-05T13:59:21;10.50;99.90
19974;DHT22;10148;47.694;9.442;2023-03-05T14:01:47;10.60;99.90
19974;DHT22;10148;47.694;9.442;2023-03-05T14:07:28;10.80;99.90
19974;DHT22;10148;47.694;9.442;2023-03-05T14:09:31;10.50;99.90
19974;DHT22;10148;47.694;9.442;2023-03-05T14:12:27;10.50;99.90
19974;DHT22;10148;47.694;9.442;2023-03-05T14:14:58;10.50;99.90
19974;DHT22;10148;47.694;9.442;2023-03-05T14:20:23;10.80;99.90
19974;DHT22;10148;47.694;9.442;2023-03-05T14:22:52;10.70;99.90
19974;DHT22;10148;47.694;9.442;2023-03-05T14:25:34;10.20;99.90
19974;DHT22;10148;47.694;9.442;2023-03-05T14:28:27;9.80;99.90
19974;DHT22;10148;47.694;9.442;2023-03-05T14:30:55;9.80;99.90
19974;DHT22;10148;47.694;9.442;2023-03-05T14:33:26;9.60;99.90
19974;DHT22;10148;47.694;9.442;2023-03-05T14:35:53;9.50;99.90
19974;DHT22;10148;47.694;9.442;2023-03-05T14:38:23;9.30;99.90
19974;DHT22;10148;47.694;9.442;2023-03-05T14:40:49;9.30;99.90
19974;DHT22;10148;47.694;9.442;2023-03-05T14:43:15;9.20;99.90
19974;DHT22;10148;47.694;9.442;2023-03-05T14:45:41;8.80;99.90
19974;DHT22;10148;47.694;9.442;2023-03-05T14:48:10;8.90;99.90
19974;DHT22;10148;47.694;9.442;2023-03-05T14:50:50;8.90;99.90
19974;DHT22;10148;47.694;9.442;2023-03-05T14:53:25;8.70;99.90
19974;DHT22;10148;47.694;9.442;2023-03-05T14:55:54;8.80;99.90
19974;DHT22;10148;47.694;9.442;2023-03-05T14:58:26;8.80;99.90
19974;DHT22;10148;47.694;9.442;2023-03-05T15:00:52;8.80;99.90
19974;DHT22;10148;47.694;9.442;2023-03-05T15:03:20;8.70;99.90
19974;DHT22;10148;47.694;9.442;2023-03-05T15:05:48;8.70;99.90
19974;DHT22;10148;47.694;9.442;2023-03-05T15:08:17;8.40;99.90
19974;DHT22;10148;47.694;9.442;2023-03-05T15:10:44;8.10;99.90
19974;DHT22;10148;47.694;9.442;2023-03-05T15:13:12;8.20;99.90
19974;DHT22;10148;47.694;9.442;2023-03-05T15:15:39;8.20;99.90
19974;DHT22;10148;47.694;9.442;2023-03-05T15:18:05;8.30;99.90
19974;DHT22;10148;47.694;9.442;2023-03-05T15:20:31;8.30;99.90
19974;DHT22;10148;47.694;9.442;2023-03-05T15:22:58;8.30;99.90
19974;DHT22;10148;47.694;9.442;2023-03-05T15:25:24;8.30;99.90
19974;DHT22;10148;47.694;9.442;2023-03-05T15:27:53;8.10;99.90
19974;DHT22;10148;47.694;9.442;2023-03-05T15:32:47;8.00;99.90
19974;DHT22;10148;47.694;9.442;2023-03-05T15:35:13;7.80;99.90
19974;DHT22;10148;47.694;9.442;2023-03-05T15:37:38;7.80;99.90
19974;DHT22;10148;47.694;9.442;2023-03-05T15:40:05;7.70;99.90
19974;DHT22;10148;47.694;9.442;2023-03-05T15:42:30;7.60;99.90
19974;DHT22;10148;47.694;9.442;2023-03-05T15:44:56;7.60;99.90
19974;DHT22;10148;47.694;9.442;2023-03-05T15:47:21;7.70;99.90
19974;DHT22;10148;47.694;9.442;2023-03-05T15:49:47;7.70;99.90
19974;DHT22;10148;47.694;9.442;2023-03-05T15:52:12;7.60;99.90
19974;DHT22;10148;47.694;9.442;2023-03-05T15:54:39;7.60;99.90
19974;DHT22;10148;47.694;9.442;2023-03-05T15:57:08;7.60;99.90
19974;DHT22;10148;47.694;9.442;2023-03-05T15:59:34;7.70;99.90
19974;DHT22;10148;47.694;9.442;2023-03-05T16:02:00;7.70;99.90
19974;DHT22;10148;47.694;9.442;2023-03-05T16:04:26;7.50;99.90
19974;DHT22;10148;47.694;9.442;2023-03-05T16:06:53;7.40;99.90
19974;DHT22;10148;47.694;9.442;2023-03-05T16:09:20;7.50;99.90
19974;DHT22;10148;47.694;9.442;2023-03-05T16:11:46;7.50;99.90
19974;DHT22;10148;47.694;9.442;2023-03-05T16:14:21;7.50;99.90
19974;DHT22;10148;47.694;9.442;2023-03-05T16:16:49;7.50;99.90
19974;DHT22;10148;47.694;9.442;2023-03-05T16:19:17;7.50;99.90
19974;DHT22;10148;47.694;9.442;2023-03-05T16:21:44;7.50;99.90
19974;DHT22;10148;47.694;9.442;2023-03-05T16:24:10;7.40;99.90
19974;DHT22;10148;47.694;9.442;2023-03-05T16:26:37;7.30;99.90
19974;DHT22;10148;47.694;9.442;2023-03-05T16:29:03;7.20;99.90
19974;DHT22;10148;47.694;9.442;2023-03-05T16:31:31;7.10;99.90
19974;DHT22;10148;47.694;9.442;2023-03-05T16:33:58;7.10;99.90
19974;DHT22;10148;47.694;9.442;2023-03-05T16:36:26;7.00;99.90
19974;DHT22;10148;47.694;9.442;2023-03-05T16:38:54;6.90;99.90
19974;DHT22;10148;47.694;9.442;2023-03-05T16:41:21;6.90;99.90
19974;DHT22;10148;47.694;9.442;2023-03-05T16:43:48;7.00;99.90
19974;DHT22;10148;47.694;9.442;2023-03-05T16:46:14;7.00;99.90
19974;DHT22;10148;47.694;9.442;2023-03-05T16:48:41;7.10;99.90
19974;DHT22;10148;47.694;9.442;2023-03-05T16:51:08;7.10;99.90
19974;DHT22;10148;47.694;9.442;2023-03-05T16:53:34;7.10;99.90
19974;DHT22;10148;47.694;9.442;2023-03-05T16:56:04;6.90;99.90
19974;DHT22;10148;47.694;9.442;2023-03-05T16:58:30;6.80;99.90
19974;DHT22;10148;47.694;9.442;2023-03-05T17:00:56;6.60;99.90
19974;DHT22;10148;47.694;9.442;2023-03-05T17:03:22;6.50;99.90
19974;DHT22;10148;47.694;9.442;2023-03-05T17:05:48;6.40;99.90
19974;DHT22;10148;47.694;9.442;2023-03-05T17:08:13;6.20;99.90
19974;DHT22;10148;47.694;9.442;2023-03-05T17:10:41;6.10;99.90
19974;DHT22;10148;47.694;9.442;2023-03-05T17:13:07;6.10;99.90